createdAt,value
2023-03-19T00:02:24.724Z,9.91
2023-03-19T00:05:11.748Z,9.77
2023-03-19T00:07:59.731Z,9.67
2023-03-19T00:10:46.581Z,9.60
2023-03-19T00:13:33.349Z,9.66
2023-03-19T00:16:20.945Z,9.58
2023-03-19T00:19:08.487Z,9.50
2023-03-19T00:21:56.270Z,9.44
2023-03-19T00:24:43.972Z,9.38
2023-03-19T00:27:30.838Z,9.35
2023-03-19T00:30:17.871Z,9.30
2023-03-19T00:33:04.444Z,9.35
2023-03-19T00:35:51.889Z,9.47
2023-03-19T00:38:38.850Z,9.46
2023-03-19T00:41:27.643Z,9.46
2023-03-19T00:44:14.220Z,9.52
2023-03-19T00:47:01.054Z,9.41
2023-03-19T00:49:47.806Z,9.33
2023-03-19T00:52:34.664Z,9.29
2023-03-19T00:55:21.542Z,9.25
2023-03-19T00:58:10.368Z,9.23
2023-03-19T01:00:57.043Z,9.24
2023-03-19T01:03:44.134Z,9.29
2023-03-19T01:06:31.380Z,9.15
2023-03-19T01:09:17.798Z,9.05
2023-03-19T01:12:04.975Z,9.12
2023-03-19T01:14:54.041Z,9.00
2023-03-19T01:17:40.751Z,8.93
2023-03-19T01:20:27.509Z,8.91
2023-03-19T01:23:14.373Z,8.89
2023-03-19T01:26:01.148Z,8.83
2023-03-19T01:28:48.429Z,8.76
2023-03-19T01:31:39.125Z,8.75
2023-03-19T01:34:41.325Z,8.79
2023-03-19T01:37:29.629Z,8.76
2023-03-19T01:40:16.710Z,8.82
2023-03-19T01:43:25.600Z,8.64
2023-03-19T01:46:26.554Z,8.67
2023-03-19T01:49:33.742Z,8.82
2023-03-19T01:52:36.465Z,8.86
2023-03-19T01:55:35.815Z,9.01
2023-03-19T01:58:31.296Z,9.15
2023-03-19T02:01:29.531Z,9.16
2023-03-19T02:04:16.782Z,9.16
2023-03-19T02:07:06.480Z,9.18
2023-03-19T02:09:53.803Z,9.09
2023-03-19T02:12:41.095Z,8.99
2023-03-19T02:15:27.903Z,8.91
2023-03-19T02:18:14.828Z,8.84
2023-03-19T02:21:06.876Z,8.72
2023-03-19T02:24:02.649Z,8.56
2023-03-19T02:27:08.190Z,8.49
2023-03-19T02:29:57.130Z,8.40
2023-03-19T02:32:44.712Z,8.10
2023-03-19T02:35:34.510Z,8.28
2023-03-19T02:38:22.796Z,8.27
2023-03-19T02:41:10.824Z,8.31
2023-03-19T02:44:03.691Z,8.12
2023-03-19T02:46:51.910Z,8.05
2023-03-19T02:49:38.620Z,8.25
2023-03-19T02:52:25.443Z,8.30
2023-03-19T02:55:12.353Z,8.41
2023-03-19T02:57:59.209Z,8.51
2023-03-19T03:00:47.541Z,8.36
2023-03-19T03:03:34.237Z,8.36
2023-03-19T03:06:20.748Z,8.41
2023-03-19T03:09:08.038Z,8.39
2023-03-19T03:11:55.040Z,8.49
2023-03-19T03:14:41.868Z,8.64
2023-03-19T03:17:29.993Z,8.76
2023-03-19T03:20:19.875Z,8.53
2023-03-19T03:23:07.048Z,8.70
2023-03-19T03:25:54.424Z,8.70
2023-03-19T03:28:41.521Z,8.64
2023-03-19T03:31:28.251Z,8.65
2023-03-19T03:34:16.133Z,8.66
2023-03-19T03:37:03.033Z,8.67
2023-03-19T03:39:49.822Z,8.58
2023-03-19T03:42:38.346Z,8.54
2023-03-19T03:45:27.567Z,8.57
2023-03-19T03:48:14.725Z,8.62
2023-03-19T03:51:03.341Z,8.58
2023-03-19T03:53:50.842Z,8.57
2023-03-19T03:56:37.789Z,8.57
2023-03-19T03:59:25.386Z,8.54
2023-03-19T04:02:15.815Z,8.59
2023-03-19T04:05:04.593Z,8.53
2023-03-19T04:07:55.151Z,8.44
2023-03-19T04:10:43.859Z,8.70
2023-03-19T04:13:31.662Z,8.70
2023-03-19T04:16:18.259Z,8.81
2023-03-19T04:19:05.029Z,8.79
2023-03-19T04:21:51.849Z,8.93
2023-03-19T04:24:41.371Z,9.02
2023-03-19T04:27:28.327Z,9.08
2023-03-19T04:30:15.952Z,8.99
2023-03-19T04:33:03.613Z,8.97
2023-03-19T04:35:50.463Z,9.17
2023-03-19T04:38:38.301Z,9.28
2023-03-19T04:41:27.245Z,9.13
2023-03-19T04:44:31.068Z,9.03
2023-03-19T04:47:20.809Z,9.04
2023-03-19T04:50:14.988Z,9.12
2023-03-19T04:53:03.335Z,9.16
2023-03-19T04:55:50.261Z,9.18
2023-03-19T04:58:40.503Z,9.23
2023-03-19T05:01:28.394Z,9.39
2023-03-19T05:04:25.130Z,9.46
2023-03-19T05:07:15.153Z,9.44
2023-03-19T05:10:03.471Z,9.37
2023-03-19T05:12:50.857Z,9.50
2023-03-19T05:15:39.476Z,9.43
2023-03-19T05:18:27.473Z,9.39
2023-03-19T05:21:14.998Z,9.58
2023-03-19T05:24:04.037Z,9.67
2023-03-19T05:26:54.897Z,9.62
2023-03-19T05:30:20.467Z,9.75
2023-03-19T05:33:08.873Z,9.70
2023-03-19T05:36:00.936Z,9.66
2023-03-19T05:39:02.067Z,9.70
2023-03-19T05:41:53.956Z,9.65
2023-03-19T05:44:46.963Z,9.72
2023-03-19T05:47:37.310Z,9.78
2023-03-19T05:50:25.573Z,10.01
2023-03-19T05:53:31.281Z,10.21
2023-03-19T05:56:37.502Z,9.99
2023-03-19T05:59:43.354Z,10.14
2023-03-19T06:02:58.699Z,9.89
2023-03-19T06:05:51.771Z,9.83
2023-03-19T06:08:50.544Z,9.93
2023-03-19T06:11:54.445Z,9.83
2023-03-19T06:15:01.005Z,9.83
2023-03-19T06:18:24.053Z,9.71
2023-03-19T06:21:12.330Z,9.84
2023-03-19T06:23:58.933Z,9.52
2023-03-19T06:26:51.454Z,9.48
2023-03-19T06:29:38.650Z,9.32
2023-03-19T06:32:38.474Z,9.29
2023-03-19T06:35:29.639Z,9.51
2023-03-19T06:38:18.934Z,9.69
2023-03-19T06:41:06.278Z,9.71
2023-03-19T06:43:53.311Z,9.90
2023-03-19T06:46:40.122Z,10.19
2023-03-19T06:49:27.305Z,10.43
2023-03-19T06:52:14.026Z,10.47
2023-03-19T06:55:02.220Z,10.79
2023-03-19T06:57:50.212Z,10.88
2023-03-19T07:00:37.209Z,10.95
2023-03-19T07:03:24.285Z,11.03
2023-03-19T07:06:11.973Z,11.07
2023-03-19T07:08:59.484Z,11.16
2023-03-19T07:11:48.364Z,11.14
2023-03-19T07:14:34.898Z,11.23
2023-03-19T07:17:21.739Z,11.45
2023-03-19T07:20:09.147Z,11.55
2023-03-19T07:22:56.173Z,11.46
2023-03-19T07:25:43.249Z,11.52
2023-03-19T07:28:31.847Z,11.60
2023-03-19T07:31:18.789Z,11.48
2023-03-19T07:34:05.426Z,11.30
2023-03-19T07:36:53.159Z,11.31
2023-03-19T07:39:39.715Z,11.13
2023-03-19T07:42:26.625Z,11.24
2023-03-19T07:45:14.969Z,11.34
2023-03-19T07:48:03.533Z,11.12
2023-03-19T07:50:51.310Z,11.28
2023-03-19T07:53:37.862Z,11.44
2023-03-19T07:56:24.883Z,11.50
2023-03-19T07:59:11.712Z,11.30
2023-03-19T08:01:59.850Z,11.44
2023-03-19T08:04:46.701Z,11.60
2023-03-19T08:07:33.732Z,11.44
2023-03-19T08:10:20.366Z,11.44
2023-03-19T08:13:07.137Z,11.29
2023-03-19T08:15:54.590Z,11.10
2023-03-19T08:18:42.701Z,10.88
2023-03-19T08:21:29.852Z,10.89
2023-03-19T08:24:16.428Z,11.15
2023-03-19T08:27:03.954Z,11.32
2023-03-19T08:29:50.468Z,11.39
2023-03-19T08:32:38.093Z,11.44
2023-03-19T08:35:27.332Z,11.57
2023-03-19T08:38:14.166Z,11.86
2023-03-19T08:41:02.522Z,12.02
2023-03-19T08:43:49.600Z,12.11
2023-03-19T08:46:36.771Z,12.27
2023-03-19T08:49:23.204Z,12.24
2023-03-19T08:52:11.817Z,12.31
2023-03-19T08:54:58.465Z,12.36
2023-03-19T08:57:47.073Z,12.50
2023-03-19T09:00:33.755Z,12.37
2023-03-19T09:03:21.758Z,12.52
2023-03-19T09:06:10.925Z,12.41
2023-03-19T09:08:58.727Z,12.31
2023-03-19T09:11:46.336Z,12.32
2023-03-19T09:14:32.899Z,12.22
2023-03-19T09:17:19.714Z,12.30
2023-03-19T09:20:07.561Z,12.29
2023-03-19T09:22:54.303Z,12.36
2023-03-19T09:25:42.642Z,12.34
2023-03-19T09:28:29.083Z,12.37
2023-03-19T09:31:15.855Z,12.38
2023-03-19T09:34:02.905Z,12.52
2023-03-19T09:36:49.653Z,12.55
2023-03-19T09:39:36.709Z,12.59
2023-03-19T09:42:45.743Z,12.53
2023-03-19T09:45:33.073Z,12.51
2023-03-19T09:48:28.958Z,12.56
2023-03-19T09:51:22.407Z,12.51
2023-03-19T09:54:20.738Z,12.55
2023-03-19T09:57:12.739Z,12.52
2023-03-19T10:00:02.364Z,12.49
2023-03-19T10:02:58.030Z,12.55
2023-03-19T10:05:53.019Z,12.61
2023-03-19T10:08:53.443Z,12.54
2023-03-19T10:11:52.841Z,12.59
2023-03-19T10:15:00.431Z,12.66
2023-03-19T10:17:57.211Z,12.72
2023-03-19T10:20:52.171Z,12.73
2023-03-19T10:23:43.360Z,12.66
2023-03-19T10:26:32.422Z,12.71
2023-03-19T10:29:21.678Z,12.75
2023-03-19T10:32:18.390Z,12.85
2023-03-19T10:35:14.259Z,13.05
2023-03-19T10:38:18.182Z,13.24
2023-03-19T10:41:20.687Z,13.55
2023-03-19T10:44:13.596Z,13.54
2023-03-19T10:47:10.094Z,13.93
2023-03-19T10:49:57.690Z,14.28
2023-03-19T10:52:51.618Z,14.62
2023-03-19T10:55:38.406Z,14.84
2023-03-19T10:58:28.333Z,15.04
2023-03-19T11:01:17.467Z,15.07
2023-03-19T11:04:14.297Z,15.23
2023-03-19T11:07:07.535Z,15.14
2023-03-19T11:09:57.220Z,15.20
2023-03-19T11:12:49.933Z,15.33
2023-03-19T11:15:39.000Z,15.59
2023-03-19T11:18:29.459Z,15.94
2023-03-19T11:21:25.006Z,16.05
2023-03-19T11:24:14.011Z,16.22
2023-03-19T11:27:03.309Z,16.26
2023-03-19T11:29:49.642Z,16.42
2023-03-19T11:33:01.696Z,16.68
2023-03-19T11:35:56.968Z,16.97
2023-03-19T11:39:00.780Z,17.02
2023-03-19T11:41:57.306Z,16.99
2023-03-19T11:44:58.334Z,17.03
2023-03-19T11:47:54.789Z,16.95
2023-03-19T11:50:49.299Z,17.03
2023-03-19T11:53:39.841Z,16.83
2023-03-19T11:56:34.406Z,17.48
2023-03-19T11:59:33.478Z,17.50
2023-03-19T12:02:45.504Z,17.69
2023-03-19T12:05:34.492Z,17.62
2023-03-19T12:08:34.862Z,17.54
2023-03-19T12:11:26.073Z,17.53
2023-03-19T12:14:28.246Z,17.37
2023-03-19T12:17:26.325Z,17.57
2023-03-19T12:20:31.535Z,17.35
2023-03-19T12:23:31.008Z,17.35
2023-03-19T12:26:27.191Z,17.21
2023-03-19T12:29:23.586Z,17.26
2023-03-19T12:32:22.752Z,16.78
2023-03-19T12:35:15.000Z,16.64
2023-03-19T12:38:10.540Z,17.07
2023-03-19T12:41:02.513Z,16.79
2023-03-19T12:43:57.158Z,16.95
2023-03-19T12:46:51.161Z,16.98
2023-03-19T12:49:42.467Z,16.84
2023-03-19T12:52:35.084Z,16.92
2023-03-19T12:55:28.215Z,17.11
2023-03-19T12:58:23.543Z,17.14
2023-03-19T13:01:14.710Z,17.17
2023-03-19T13:04:09.496Z,17.26
2023-03-19T13:07:00.460Z,17.45
2023-03-19T13:09:52.859Z,17.38
2023-03-19T13:12:41.893Z,17.39
2023-03-19T13:15:34.130Z,17.50
2023-03-19T13:18:32.458Z,17.55
2023-03-19T13:21:24.729Z,17.34
2023-03-19T13:24:21.226Z,17.21
2023-03-19T13:27:12.402Z,17.43
2023-03-19T13:30:17.860Z,17.40
2023-03-19T13:33:06.974Z,17.38
2023-03-19T13:35:54.000Z,17.59
2023-03-19T13:38:42.573Z,17.64
2023-03-19T13:41:55.446Z,17.78
2023-03-19T13:44:48.997Z,17.72
2023-03-19T13:47:44.172Z,17.83
2023-03-19T13:50:34.325Z,17.32
2023-03-19T13:53:37.400Z,17.43
2023-03-19T13:56:29.868Z,17.26
2023-03-19T13:59:25.358Z,17.51
2023-03-19T14:02:50.751Z,17.42
2023-03-19T14:05:37.880Z,17.47
2023-03-19T14:08:27.620Z,17.45
2023-03-19T14:11:24.613Z,17.56
2023-03-19T14:14:16.355Z,17.57
2023-03-19T14:17:03.480Z,17.61
2023-03-19T14:19:54.296Z,17.46
2023-03-19T14:22:56.559Z,17.56
2023-03-19T14:26:07.086Z,17.53
2023-03-19T14:29:01.846Z,17.57
2023-03-19T14:31:51.241Z,17.41
2023-03-19T14:34:41.890Z,17.58
2023-03-19T14:37:45.969Z,17.60
2023-03-19T14:40:42.067Z,17.73
2023-03-19T14:43:52.744Z,17.80
2023-03-19T14:46:53.025Z,17.83
2023-03-19T14:50:09.373Z,17.94
2023-03-19T14:53:03.866Z,18.07
2023-03-19T14:55:52.104Z,18.14
2023-03-19T14:58:38.899Z,17.99
2023-03-19T15:01:28.021Z,17.99
2023-03-19T15:04:17.446Z,17.83
2023-03-19T15:07:04.546Z,17.96
2023-03-19T15:09:56.333Z,18.05
2023-03-19T15:13:17.678Z,18.24
2023-03-19T15:16:22.820Z,18.29
2023-03-19T15:19:11.192Z,18.43
2023-03-19T15:22:06.118Z,18.47
2023-03-19T15:24:54.280Z,18.36
2023-03-19T15:27:41.155Z,18.25
2023-03-19T15:30:29.300Z,18.14
2023-03-19T15:33:37.211Z,18.24
2023-03-19T15:36:30.281Z,17.96
2023-03-19T15:39:20.321Z,17.81
2023-03-19T15:42:08.238Z,17.66
2023-03-19T15:44:59.238Z,17.65
2023-03-19T15:47:50.509Z,17.45
2023-03-19T15:50:41.325Z,17.49
2023-03-19T15:53:32.375Z,17.39
2023-03-19T15:56:21.110Z,17.35
2023-03-19T15:59:09.044Z,17.31
2023-03-19T16:01:58.723Z,17.14
2023-03-19T16:05:13.904Z,16.82
2023-03-19T16:07:57.541Z,16.77
2023-03-19T16:10:45.774Z,16.80
2023-03-19T16:13:38.865Z,16.63
2023-03-19T16:16:30.075Z,16.43
2023-03-19T16:19:32.846Z,16.38
2023-03-19T16:22:22.991Z,16.28
2023-03-19T16:25:18.873Z,16.23
2023-03-19T16:28:07.286Z,16.20
2023-03-19T16:30:54.188Z,16.15
2023-03-19T16:33:43.288Z,16.25
2023-03-19T16:36:32.494Z,16.18
2023-03-19T16:39:35.023Z,16.26
2023-03-19T16:42:40.251Z,16.14
2023-03-19T16:45:29.254Z,16.21
2023-03-19T16:48:15.918Z,16.18
2023-03-19T16:51:04.721Z,16.19
2023-03-19T16:53:51.596Z,16.17
2023-03-19T16:56:38.519Z,16.27
2023-03-19T16:59:30.297Z,16.22
2023-03-19T17:02:18.968Z,16.08
2023-03-19T17:05:13.701Z,15.89
2023-03-19T17:08:01.924Z,15.81
2023-03-19T17:10:51.337Z,15.78
2023-03-19T17:13:43.705Z,15.81
2023-03-19T17:16:31.109Z,15.49
2023-03-19T17:19:20.489Z,15.28
2023-03-19T17:22:07.369Z,15.33
2023-03-19T17:24:56.594Z,15.09
2023-03-19T17:27:43.320Z,14.84
2023-03-19T17:30:30.093Z,14.82
2023-03-19T17:33:24.586Z,14.84
2023-03-19T17:36:12.277Z,14.74
2023-03-19T17:38:59.386Z,14.71
2023-03-19T17:41:47.611Z,14.49
2023-03-19T17:44:34.344Z,14.43
2023-03-19T17:47:21.259Z,14.36
2023-03-19T17:50:08.902Z,14.32
2023-03-19T17:52:56.014Z,14.14
2023-03-19T17:55:42.428Z,14.14
2023-03-19T17:58:30.883Z,13.93
2023-03-19T18:01:21.031Z,13.91
2023-03-19T18:04:08.328Z,13.78
2023-03-19T18:06:56.999Z,13.69
2023-03-19T18:09:43.855Z,13.69
2023-03-19T18:12:30.717Z,13.72
2023-03-19T18:15:24.107Z,13.85
2023-03-19T18:18:17.990Z,13.79
2023-03-19T18:21:05.087Z,13.72
2023-03-19T18:23:51.610Z,13.70
2023-03-19T18:26:38.324Z,13.68
2023-03-19T18:29:25.300Z,13.61
2023-03-19T18:32:17.220Z,13.53
2023-03-19T18:35:04.658Z,13.45
2023-03-19T18:37:53.021Z,13.39
2023-03-19T18:40:39.485Z,13.34
2023-03-19T18:43:26.411Z,13.32
2023-03-19T18:46:16.275Z,13.37
2023-03-19T18:49:06.354Z,13.38
2023-03-19T18:52:08.656Z,13.39
2023-03-19T18:54:55.535Z,13.32
2023-03-19T18:57:52.812Z,13.09
2023-03-19T19:00:40.187Z,13.26
2023-03-19T19:03:29.561Z,13.17
2023-03-19T19:06:26.336Z,13.21
2023-03-19T19:09:14.975Z,13.17
2023-03-19T19:12:02.146Z,13.25
2023-03-19T19:14:49.508Z,12.96
2023-03-19T19:17:36.536Z,12.98
2023-03-19T19:20:25.093Z,12.93
2023-03-19T19:23:13.321Z,12.93
2023-03-19T19:26:00.169Z,12.86
2023-03-19T19:28:47.031Z,12.78
2023-03-19T19:31:37.279Z,12.82
2023-03-19T19:34:37.803Z,12.78
2023-03-19T19:37:25.052Z,12.72
2023-03-19T19:40:16.329Z,12.75
2023-03-19T19:43:05.460Z,12.78
2023-03-19T19:45:54.914Z,12.76
2023-03-19T19:48:41.855Z,12.76
2023-03-19T19:51:29.444Z,12.84
2023-03-19T19:54:16.166Z,12.53
2023-03-19T19:57:04.184Z,12.06
2023-03-19T19:59:51.818Z,12.44
2023-03-19T20:02:38.763Z,12.36
2023-03-19T20:05:27.691Z,11.82
2023-03-19T20:08:14.485Z,12.28
2023-03-19T20:11:02.292Z,12.13
2023-03-19T20:13:54.496Z,12.13
2023-03-19T20:16:41.359Z,11.90
2023-03-19T20:19:28.920Z,11.99
2023-03-19T20:22:16.351Z,12.06
2023-03-19T20:25:04.228Z,12.03
2023-03-19T20:27:53.352Z,12.03
2023-03-19T20:30:41.906Z,12.11
2023-03-19T20:33:31.242Z,11.92
2023-03-19T20:36:18.560Z,11.86
2023-03-19T20:39:05.753Z,11.84
2023-03-19T20:41:52.469Z,11.76
2023-03-19T20:44:38.952Z,11.75
2023-03-19T20:47:27.556Z,11.76
2023-03-19T20:50:20.264Z,11.59
2023-03-19T20:53:06.763Z,11.81
2023-03-19T20:55:53.949Z,11.70
2023-03-19T20:58:40.846Z,11.74
2023-03-19T21:01:28.313Z,11.83
2023-03-19T21:04:21.036Z,11.80
2023-03-19T21:07:18.212Z,11.76
2023-03-19T21:10:13.654Z,11.86
2023-03-19T21:13:02.128Z,11.57
2023-03-19T21:15:50.389Z,11.80
2023-03-19T21:18:36.750Z,11.81
2023-03-19T21:21:29.789Z,12.00
2023-03-19T21:24:20.469Z,12.06
2023-03-19T21:27:07.279Z,12.11
2023-03-19T21:29:54.947Z,12.15
2023-03-19T21:32:41.740Z,12.14
2023-03-19T21:35:28.853Z,12.23
2023-03-19T21:38:17.221Z,12.20
2023-03-19T21:41:06.511Z,12.29
2023-03-19T21:43:56.262Z,12.30
2023-03-19T21:46:46.613Z,12.41
2023-03-19T21:49:34.053Z,12.54
2023-03-19T21:52:22.057Z,12.48
2023-03-19T21:55:14.121Z,12.62
2023-03-19T21:58:00.856Z,12.76
2023-03-19T22:00:48.039Z,12.71
2023-03-19T22:03:41.466Z,12.52
2023-03-19T22:06:28.136Z,12.61
2023-03-19T22:09:14.581Z,12.66
2023-03-19T22:12:02.971Z,12.65
2023-03-19T22:14:49.707Z,12.44
2023-03-19T22:17:36.944Z,12.60
2023-03-19T22:20:25.840Z,12.79
2023-03-19T22:23:13.805Z,12.67
2023-03-19T22:26:00.431Z,12.68
2023-03-19T22:28:48.671Z,12.65
2023-03-19T22:31:36.041Z,12.63
2023-03-19T22:34:24.785Z,12.58
2023-03-19T22:37:26.107Z,12.72
2023-03-19T22:40:15.041Z,12.65
2023-03-19T22:43:02.239Z,12.78
2023-03-19T22:45:55.525Z,12.76
2023-03-19T22:48:43.332Z,12.72
2023-03-19T22:51:30.092Z,12.72
2023-03-19T22:54:16.982Z,12.69
2023-03-19T22:57:03.696Z,12.67
2023-03-19T22:59:51.328Z,12.69
2023-03-19T23:02:39.328Z,12.58
2023-03-19T23:05:33.313Z,12.58
2023-03-19T23:08:20.568Z,12.67
2023-03-19T23:11:08.037Z,12.55
2023-03-19T23:13:56.684Z,12.54
2023-03-19T23:16:45.871Z,12.43
2023-03-19T23:19:35.743Z,12.47
2023-03-19T23:22:22.756Z,12.48
2023-03-19T23:25:14.952Z,12.44
2023-03-19T23:28:03.792Z,12.47
2023-03-19T23:30:51.541Z,12.30
2023-03-19T23:33:38.151Z,12.44
2023-03-19T23:36:26.858Z,12.35
2023-03-19T23:39:14.134Z,12.33
2023-03-19T23:42:01.033Z,12.32
2023-03-19T23:44:48.263Z,12.25
2023-03-19T23:47:34.986Z,12.26
2023-03-19T23:50:21.433Z,12.34
2023-03-19T23:53:19.781Z,12.32
2023-03-19T23:56:16.094Z,12.48
2023-03-19T23:59:02.925Z,12.59
